sensor_id;sensor_type;location;lat;lon;timestamp;P1;durP1;ratioP1;P2;durP2;ratioP2
70467;SDS011;57934;51.532;7.684;2022-10-26T00:01:07;4.72;;;2.00;;
70467;SDS011;57934;51.532;7.684;2022-10-26T00:03:38;3.90;;;2.40;;
70467;SDS011;57934;51.532;7.684;2022-10-26T00:06:15;2.60;;;1.50;;
70467;SDS011;57934;51.532;7.684;2022-10-26T00:08:43;3.10;;;1.98;;
70467;SDS011;57934;51.532;7.684;2022-10-26T00:11:10;8.27;;;1.88;;
70467;SDS011;57934;51.532;7.684;2022-10-26T00:13:37;4.57;;;2.63;;
70467;SDS011;57934;51.532;7.684;2022-10-26T00:16:08;9.45;;;2.17;;
70467;SDS011;57934;51.532;7.684;2022-10-26T00:18:36;5.13;;;1.92;;
70467;SDS011;57934;51.532;7.684;2022-10-26T00:21:03;6.50;;;2.10;;
70467;SDS011;57934;51.532;7.684;2022-10-26T00:23:30;8.27;;;2.25;;
70467;SDS011;57934;51.532;7.684;2022-10-26T00:25:57;4.18;;;2.25;;
70467;SDS011;57934;51.532;7.684;2022-10-26T00:28:23;11.70;;;2.25;;
70467;SDS011;57934;51.532;7.684;2022-10-26T00:30:49;8.82;;;2.25;;
70467;SDS011;57934;51.532;7.684;2022-10-26T00:33:15;10.85;;;2.28;;
70467;SDS011;57934;51.532;7.684;2022-10-26T00:35:42;5.47;;;2.00;;
70467;SDS011;57934;51.532;7.684;2022-10-26T00:38:08;5.50;;;1.92;;
70467;SDS011;57934;51.532;7.684;2022-10-26T00:40:34;4.47;;;2.08;;
70467;SDS011;57934;51.532;7.684;2022-10-26T00:43:00;5.20;;;2.33;;
70467;SDS011;57934;51.532;7.684;2022-10-26T00:45:27;5.05;;;2.20;;
70467;SDS011;57934;51.532;7.684;2022-10-26T00:47:58;15.38;;;3.00;;
70467;SDS011;57934;51.532;7.684;2022-10-26T00:50:31;8.35;;;2.30;;
70467;SDS011;57934;51.532;7.684;2022-10-26T00:53:02;5.35;;;2.00;;
70467;SDS011;57934;51.532;7.684;2022-10-26T00:55:31;11.68;;;3.03;;
70467;SDS011;57934;51.532;7.684;2022-10-26T00:58:02;6.05;;;2.53;;
70467;SDS011;57934;51.532;7.684;2022-10-26T01:00:32;5.20;;;2.65;;
70467;SDS011;57934;51.532;7.684;2022-10-26T01:02:59;9.00;;;3.08;;
70467;SDS011;57934;51.532;7.684;2022-10-26T01:05:30;4.03;;;2.13;;
70467;SDS011;57934;51.532;7.684;2022-10-26T01:07:56;9.40;;;2.28;;
70467;SDS011;57934;51.532;7.684;2022-10-26T01:10:23;6.13;;;1.95;;
70467;SDS011;57934;51.532;7.684;2022-10-26T01:12:51;7.43;;;2.30;;
70467;SDS011;57934;51.532;7.684;2022-10-26T01:15:18;7.00;;;1.85;;
70467;SDS011;57934;51.532;7.684;2022-10-26T01:20:44;3.47;;;2.67;;
70467;SDS011;57934;51.532;7.684;2022-10-26T01:23:40;7.22;;;1.70;;
70467;SDS011;57934;51.532;7.684;2022-10-26T01:31:52;4.93;;;2.08;;
70467;SDS011;57934;51.532;7.684;2022-10-26T01:34:24;11.07;;;3.08;;
70467;SDS011;57934;51.532;7.684;2022-10-26T01:36:59;6.82;;;2.20;;
70467;SDS011;57934;51.532;7.684;2022-10-26T01:39:38;8.93;;;2.30;;
70467;SDS011;57934;51.532;7.684;2022-10-26T01:42:11;10.48;;;2.50;;
70467;SDS011;57934;51.532;7.684;2022-10-26T01:44:41;5.35;;;2.30;;
70467;SDS011;57934;51.532;7.684;2022-10-26T01:47:21;8.07;;;2.67;;
70467;SDS011;57934;51.532;7.684;2022-10-26T01:49:50;5.35;;;2.20;;
70467;SDS011;57934;51.532;7.684;2022-10-26T01:52:20;14.07;;;2.60;;
70467;SDS011;57934;51.532;7.684;2022-10-26T01:54:46;7.47;;;2.60;;
70467;SDS011;57934;51.532;7.684;2022-10-26T01:57:13;7.68;;;2.45;;
70467;SDS011;57934;51.532;7.684;2022-10-26T02:21:17;6.75;;;2.60;;
70467;SDS011;57934;51.532;7.684;2022-10-26T02:23:47;7.07;;;2.30;;
70467;SDS011;57934;51.532;7.684;2022-10-26T02:26:15;7.43;;;2.28;;
70467;SDS011;57934;51.532;7.684;2022-10-26T02:28:45;6.53;;;2.70;;
70467;SDS011;57934;51.532;7.684;2022-10-26T02:31:15;6.07;;;2.60;;
70467;SDS011;57934;51.532;7.684;2022-10-26T02:33:44;10.02;;;2.60;;
70467;SDS011;57934;51.532;7.684;2022-10-26T02:36:15;6.15;;;2.70;;
70467;SDS011;57934;51.532;7.684;2022-10-26T02:38:47;5.25;;;2.67;;
70467;SDS011;57934;51.532;7.684;2022-10-26T02:41:15;3.33;;;2.42;;
70467;SDS011;57934;51.532;7.684;2022-10-26T02:43:53;6.85;;;2.65;;
70467;SDS011;57934;51.532;7.684;2022-10-26T02:46:25;6.40;;;2.50;;
70467;SDS011;57934;51.532;7.684;2022-10-26T02:48:53;7.78;;;2.40;;
70467;SDS011;57934;51.532;7.684;2022-10-26T02:53:56;10.85;;;3.10;;
70467;SDS011;57934;51.532;7.684;2022-10-26T02:56:39;7.68;;;2.47;;
70467;SDS011;57934;51.532;7.684;2022-10-26T02:59:11;7.05;;;2.30;;
70467;SDS011;57934;51.532;7.684;2022-10-26T03:01:41;10.20;;;2.53;;
70467;SDS011;57934;51.532;7.684;2022-10-26T03:04:08;4.65;;;2.25;;
70467;SDS011;57934;51.532;7.684;2022-10-26T03:06:34;7.90;;;3.42;;
70467;SDS011;57934;51.532;7.684;2022-10-26T03:09:00;4.93;;;2.45;;
70467;SDS011;57934;51.532;7.684;2022-10-26T03:11:26;6.80;;;2.50;;
70467;SDS011;57934;51.532;7.684;2022-10-26T03:13:52;6.22;;;2.15;;
70467;SDS011;57934;51.532;7.684;2022-10-26T03:16:18;5.78;;;2.50;;
70467;SDS011;57934;51.532;7.684;2022-10-26T03:18:44;2.88;;;1.83;;
70467;SDS011;57934;51.532;7.684;2022-10-26T03:21:10;7.93;;;2.15;;
70467;SDS011;57934;51.532;7.684;2022-10-26T03:23:37;2.80;;;1.80;;
70467;SDS011;57934;51.532;7.684;2022-10-26T03:26:02;6.38;;;2.22;;
70467;SDS011;57934;51.532;7.684;2022-10-26T03:28:29;6.78;;;2.15;;
70467;SDS011;57934;51.532;7.684;2022-10-26T03:30:56;4.43;;;2.08;;
70467;SDS011;57934;51.532;7.684;2022-10-26T03:33:23;6.35;;;2.40;;
70467;SDS011;57934;51.532;7.684;2022-10-26T03:35:55;4.03;;;2.38;;
70467;SDS011;57934;51.532;7.684;2022-10-26T03:38:21;4.15;;;2.80;;
70467;SDS011;57934;51.532;7.684;2022-10-26T03:40:47;7.40;;;3.22;;
70467;SDS011;57934;51.532;7.684;2022-10-26T03:43:13;8.00;;;3.78;;
70467;SDS011;57934;51.532;7.684;2022-10-26T03:45:39;6.47;;;4.10;;
70467;SDS011;57934;51.532;7.684;2022-10-26T03:48:05;8.07;;;3.58;;
70467;SDS011;57934;51.532;7.684;2022-10-26T03:50:32;9.68;;;4.43;;
70467;SDS011;57934;51.532;7.684;2022-10-26T03:52:58;9.32;;;4.40;;
70467;SDS011;57934;51.532;7.684;2022-10-26T03:55:24;9.77;;;4.25;;
70467;SDS011;57934;51.532;7.684;2022-10-26T03:57:50;7.88;;;4.10;;
70467;SDS011;57934;51.532;7.684;2022-10-26T04:00:16;6.68;;;4.35;;
70467;SDS011;57934;51.532;7.684;2022-10-26T04:02:43;7.68;;;4.10;;
70467;SDS011;57934;51.532;7.684;2022-10-26T04:05:16;13.02;;;4.20;;
70467;SDS011;57934;51.532;7.684;2022-10-26T04:07:42;8.38;;;3.92;;
70467;SDS011;57934;51.532;7.684;2022-10-26T04:10:08;10.45;;;3.92;;
70467;SDS011;57934;51.532;7.684;2022-10-26T04:12:35;6.82;;;3.47;;
70467;SDS011;57934;51.532;7.684;2022-10-26T04:15:04;8.05;;;3.67;;
70467;SDS011;57934;51.532;7.684;2022-10-26T04:17:31;8.13;;;3.55;;
70467;SDS011;57934;51.532;7.684;2022-10-26T04:19:57;7.28;;;3.15;;
70467;SDS011;57934;51.532;7.684;2022-10-26T04:22:23;8.85;;;3.58;;
70467;SDS011;57934;51.532;7.684;2022-10-26T04:24:49;7.28;;;3.00;;
70467;SDS011;57934;51.532;7.684;2022-10-26T04:27:15;5.18;;;2.53;;
70467;SDS011;57934;51.532;7.684;2022-10-26T04:29:41;10.68;;;3.25;;
70467;SDS011;57934;51.532;7.684;2022-10-26T04:32:07;7.53;;;2.05;;
70467;SDS011;57934;51.532;7.684;2022-10-26T04:34:33;4.47;;;1.98;;
70467;SDS011;57934;51.532;7.684;2022-10-26T04:37:00;5.10;;;1.75;;
70467;SDS011;57934;51.532;7.684;2022-10-26T04:39:26;4.50;;;1.70;;
70467;SDS011;57934;51.532;7.684;2022-10-26T04:41:52;5.95;;;1.90;;
70467;SDS011;57934;51.532;7.684;2022-10-26T04:44:19;6.60;;;1.50;;
70467;SDS011;57934;51.532;7.684;2022-10-26T04:46:45;5.05;;;1.42;;
70467;SDS011;57934;51.532;7.684;2022-10-26T04:49:11;4.38;;;1.15;;
70467;SDS011;57934;51.532;7.684;2022-10-26T04:51:37;7.82;;;1.30;;
70467;SDS011;57934;51.532;7.684;2022-10-26T04:54:03;3.78;;;1.25;;
70467;SDS011;57934;51.532;7.684;2022-10-26T04:56:29;12.45;;;1.50;;
70467;SDS011;57934;51.532;7.684;2022-10-26T04:58:55;5.65;;;1.30;;
70467;SDS011;57934;51.532;7.684;2022-10-26T05:01:21;5.75;;;1.30;;
70467;SDS011;57934;51.532;7.684;2022-10-26T05:03:48;4.05;;;1.50;;
70467;SDS011;57934;51.532;7.684;2022-10-26T05:06:18;3.78;;;1.45;;
70467;SDS011;57934;51.532;7.684;2022-10-26T05:08:44;5.78;;;1.38;;
70467;SDS011;57934;51.532;7.684;2022-10-26T05:11:10;2.92;;;1.45;;
70467;SDS011;57934;51.532;7.684;2022-10-26T05:13:37;3.03;;;1.30;;
70467;SDS011;57934;51.532;7.684;2022-10-26T05:16:03;6.43;;;1.40;;
70467;SDS011;57934;51.532;7.684;2022-10-26T05:18:29;8.07;;;1.42;;
70467;SDS011;57934;51.532;7.684;2022-10-26T05:20:55;3.35;;;1.10;;
70467;SDS011;57934;51.532;7.684;2022-10-26T05:23:21;5.47;;;1.48;;
70467;SDS011;57934;51.532;7.684;2022-10-26T05:25:47;11.45;;;1.50;;
70467;SDS011;57934;51.532;7.684;2022-10-26T05:28:14;3.47;;;0.90;;
70467;SDS011;57934;51.532;7.684;2022-10-26T05:30:41;4.50;;;1.45;;
70467;SDS011;57934;51.532;7.684;2022-10-26T05:33:09;6.07;;;1.10;;
70467;SDS011;57934;51.532;7.684;2022-10-26T05:35:37;3.72;;;1.20;;
70467;SDS011;57934;51.532;7.684;2022-10-26T05:38:10;5.47;;;1.25;;
70467;SDS011;57934;51.532;7.684;2022-10-26T05:40:45;7.15;;;1.00;;
70467;SDS011;57934;51.532;7.684;2022-10-26T05:43:13;7.05;;;1.92;;
70467;SDS011;57934;51.532;7.684;2022-10-26T05:45:39;5.50;;;1.42;;
70467;SDS011;57934;51.532;7.684;2022-10-26T05:48:05;3.75;;;0.95;;
70467;SDS011;57934;51.532;7.684;2022-10-26T05:50:31;3.55;;;1.05;;
70467;SDS011;57934;51.532;7.684;2022-10-26T05:52:57;3.88;;;1.13;;
70467;SDS011;57934;51.532;7.684;2022-10-26T05:55:24;3.42;;;1.02;;
70467;SDS011;57934;51.532;7.684;2022-10-26T05:57:50;3.47;;;1.40;;
70467;SDS011;57934;51.532;7.684;2022-10-26T06:00:20;4.30;;;1.00;;
70467;SDS011;57934;51.532;7.684;2022-10-26T06:05:29;5.88;;;1.23;;
70467;SDS011;57934;51.532;7.684;2022-10-26T06:08:01;3.08;;;1.30;;
70467;SDS011;57934;51.532;7.684;2022-10-26T06:10:28;3.78;;;1.40;;
70467;SDS011;57934;51.532;7.684;2022-10-26T06:12:54;7.05;;;1.23;;
70467;SDS011;57934;51.532;7.684;2022-10-26T06:15:20;5.97;;;1.33;;
70467;SDS011;57934;51.532;7.684;2022-10-26T06:20:48;5.15;;;1.00;;
70467;SDS011;57934;51.532;7.684;2022-10-26T06:31:15;7.07;;;1.50;;
70467;SDS011;57934;51.532;7.684;2022-10-26T06:33:42;3.75;;;1.52;;
70467;SDS011;57934;51.532;7.684;2022-10-26T06:36:18;3.95;;;1.73;;
70467;SDS011;57934;51.532;7.684;2022-10-26T06:38:48;7.78;;;1.67;;
70467;SDS011;57934;51.532;7.684;2022-10-26T06:41:19;6.95;;;2.70;;
70467;SDS011;57934;51.532;7.684;2022-10-26T06:43:46;5.75;;;2.13;;
70467;SDS011;57934;51.532;7.684;2022-10-26T06:48:47;5.38;;;1.40;;
70467;SDS011;57934;51.532;7.684;2022-10-26T06:51:18;5.38;;;1.70;;
70467;SDS011;57934;51.532;7.684;2022-10-26T06:56:45;6.88;;;2.08;;
70467;SDS011;57934;51.532;7.684;2022-10-26T06:59:21;3.05;;;1.08;;
70467;SDS011;57934;51.532;7.684;2022-10-26T07:01:55;5.40;;;1.33;;
70467;SDS011;57934;51.532;7.684;2022-10-26T07:04:21;8.38;;;1.52;;
70467;SDS011;57934;51.532;7.684;2022-10-26T07:06:47;2.05;;;0.90;;
70467;SDS011;57934;51.532;7.684;2022-10-26T07:09:13;3.90;;;1.38;;
70467;SDS011;57934;51.532;7.684;2022-10-26T07:11:39;4.85;;;1.48;;
70467;SDS011;57934;51.532;7.684;2022-10-26T07:14:05;4.50;;;1.20;;
70467;SDS011;57934;51.532;7.684;2022-10-26T07:16:31;6.43;;;1.50;;
70467;SDS011;57934;51.532;7.684;2022-10-26T07:18:57;8.25;;;3.05;;
70467;SDS011;57934;51.532;7.684;2022-10-26T07:21:23;5.47;;;1.30;;
70467;SDS011;57934;51.532;7.684;2022-10-26T07:23:50;3.45;;;1.20;;
70467;SDS011;57934;51.532;7.684;2022-10-26T07:26:17;4.13;;;1.40;;
70467;SDS011;57934;51.532;7.684;2022-10-26T07:28:43;6.15;;;1.40;;
70467;SDS011;57934;51.532;7.684;2022-10-26T07:31:13;6.68;;;1.38;;
70467;SDS011;57934;51.532;7.684;2022-10-26T07:33:40;4.13;;;1.15;;
70467;SDS011;57934;51.532;7.684;2022-10-26T07:36:07;5.25;;;1.48;;
70467;SDS011;57934;51.532;7.684;2022-10-26T07:38:36;4.63;;;1.30;;
70467;SDS011;57934;51.532;7.684;2022-10-26T07:41:02;4.68;;;1.00;;
70467;SDS011;57934;51.532;7.684;2022-10-26T07:43:29;5.30;;;1.20;;
70467;SDS011;57934;51.532;7.684;2022-10-26T07:45:56;5.97;;;1.55;;
70467;SDS011;57934;51.532;7.684;2022-10-26T07:48:22;8.75;;;1.50;;
70467;SDS011;57934;51.532;7.684;2022-10-26T07:50:48;9.38;;;1.40;;
70467;SDS011;57934;51.532;7.684;2022-10-26T07:53:14;3.30;;;1.35;;
70467;SDS011;57934;51.532;7.684;2022-10-26T07:55:40;5.72;;;1.17;;
70467;SDS011;57934;51.532;7.684;2022-10-26T07:58:06;3.50;;;1.35;;
70467;SDS011;57934;51.532;7.684;2022-10-26T08:00:32;6.70;;;1.45;;
70467;SDS011;57934;51.532;7.684;2022-10-26T08:02:58;5.13;;;1.20;;
70467;SDS011;57934;51.532;7.684;2022-10-26T08:05:24;3.95;;;1.23;;
70467;SDS011;57934;51.532;7.684;2022-10-26T08:07:50;9.70;;;2.10;;
70467;SDS011;57934;51.532;7.684;2022-10-26T08:10:16;11.60;;;1.20;;
70467;SDS011;57934;51.532;7.684;2022-10-26T08:12:43;2.63;;;1.05;;
70467;SDS011;57934;51.532;7.684;2022-10-26T08:15:09;3.25;;;1.30;;
70467;SDS011;57934;51.532;7.684;2022-10-26T08:17:35;3.53;;;1.20;;
70467;SDS011;57934;51.532;7.684;2022-10-26T08:20:01;6.95;;;1.98;;
70467;SDS011;57934;51.532;7.684;2022-10-26T08:22:28;4.25;;;1.08;;
70467;SDS011;57934;51.532;7.684;2022-10-26T08:24:55;3.05;;;1.02;;
70467;SDS011;57934;51.532;7.684;2022-10-26T08:27:21;8.60;;;1.30;;
70467;SDS011;57934;51.532;7.684;2022-10-26T08:29:47;5.57;;;2.33;;
70467;SDS011;57934;51.532;7.684;2022-10-26T08:32:13;6.18;;;0.95;;
70467;SDS011;57934;51.532;7.684;2022-10-26T08:34:39;5.53;;;1.25;;
70467;SDS011;57934;51.532;7.684;2022-10-26T08:37:05;3.50;;;0.93;;
70467;SDS011;57934;51.532;7.684;2022-10-26T08:39:31;2.72;;;0.80;;
70467;SDS011;57934;51.532;7.684;2022-10-26T08:42:01;3.60;;;0.77;;
70467;SDS011;57934;51.532;7.684;2022-10-26T08:44:36;2.53;;;0.93;;
70467;SDS011;57934;51.532;7.684;2022-10-26T08:47:13;4.07;;;0.93;;
70467;SDS011;57934;51.532;7.684;2022-10-26T08:52:40;4.82;;;1.30;;
70467;SDS011;57934;51.532;7.684;2022-10-26T08:55:15;10.03;;;1.03;;
70467;SDS011;57934;51.532;7.684;2022-10-26T08:57:44;4.40;;;1.00;;
70467;SDS011;57934;51.532;7.684;2022-10-26T09:00:14;4.93;;;1.42;;
70467;SDS011;57934;51.532;7.684;2022-10-26T09:02:48;5.22;;;1.00;;
70467;SDS011;57934;51.532;7.684;2022-10-26T09:05:22;16.55;;;1.90;;
70467;SDS011;57934;51.532;7.684;2022-10-26T09:07:59;5.53;;;1.10;;
70467;SDS011;57934;51.532;7.684;2022-10-26T09:10:39;2.67;;;1.00;;
70467;SDS011;57934;51.532;7.684;2022-10-26T09:13:19;6.10;;;1.30;;
70467;SDS011;57934;51.532;7.684;2022-10-26T09:16:01;3.33;;;1.08;;
70467;SDS011;57934;51.532;7.684;2022-10-26T09:21:19;5.13;;;1.25;;
70467;SDS011;57934;51.532;7.684;2022-10-26T09:23:50;2.10;;;0.93;;
70467;SDS011;57934;51.532;7.684;2022-10-26T09:26:28;3.08;;;1.25;;
70467;SDS011;57934;51.532;7.684;2022-10-26T09:29:00;5.38;;;1.20;;
70467;SDS011;57934;51.532;7.684;2022-10-26T09:31:30;7.60;;;1.30;;
70467;SDS011;57934;51.532;7.684;2022-10-26T09:34:03;2.50;;;1.15;;
70467;SDS011;57934;51.532;7.684;2022-10-26T09:36:31;5.68;;;1.60;;
70467;SDS011;57934;51.532;7.684;2022-10-26T09:44:11;6.80;;;1.70;;
70467;SDS011;57934;51.532;7.684;2022-10-26T09:49:17;5.05;;;1.40;;
70467;SDS011;57934;51.532;7.684;2022-10-26T09:51:48;7.60;;;2.15;;
70467;SDS011;57934;51.532;7.684;2022-10-26T09:54:15;4.68;;;1.40;;
70467;SDS011;57934;51.532;7.684;2022-10-26T09:56:43;5.50;;;1.30;;
70467;SDS011;57934;51.532;7.684;2022-10-26T09:59:14;5.32;;;1.30;;
70467;SDS011;57934;51.532;7.684;2022-10-26T10:01:45;5.15;;;1.83;;
70467;SDS011;57934;51.532;7.684;2022-10-26T10:06:45;5.27;;;1.60;;
70467;SDS011;57934;51.532;7.684;2022-10-26T10:09:14;5.82;;;1.40;;
70467;SDS011;57934;51.532;7.684;2022-10-26T10:14:28;7.03;;;1.70;;
70467;SDS011;57934;51.532;7.684;2022-10-26T10:17:02;6.22;;;1.73;;
70467;SDS011;57934;51.532;7.684;2022-10-26T10:19:33;6.45;;;1.70;;
70467;SDS011;57934;51.532;7.684;2022-10-26T10:22:11;5.80;;;1.58;;
70467;SDS011;57934;51.532;7.684;2022-10-26T10:24:53;4.60;;;1.55;;
70467;SDS011;57934;51.532;7.684;2022-10-26T10:27:24;6.93;;;1.50;;
70467;SDS011;57934;51.532;7.684;2022-10-26T10:29:52;5.95;;;1.50;;
70467;SDS011;57934;51.532;7.684;2022-10-26T10:32:21;5.85;;;1.75;;
70467;SDS011;57934;51.532;7.684;2022-10-26T10:34:48;3.08;;;1.35;;
70467;SDS011;57934;51.532;7.684;2022-10-26T10:40:02;5.05;;;1.48;;
70467;SDS011;57934;51.532;7.684;2022-10-26T10:42:32;6.95;;;1.40;;
70467;SDS011;57934;51.532;7.684;2022-10-26T10:45:01;7.97;;;1.83;;
70467;SDS011;57934;51.532;7.684;2022-10-26T10:47:34;6.45;;;2.22;;
70467;SDS011;57934;51.532;7.684;2022-10-26T10:50:15;5.90;;;1.60;;
70467;SDS011;57934;51.532;7.684;2022-10-26T10:52:44;6.60;;;1.60;;
70467;SDS011;57934;51.532;7.684;2022-10-26T11:00:22;7.07;;;1.65;;
70467;SDS011;57934;51.532;7.684;2022-10-26T11:08:19;7.72;;;1.90;;
70467;SDS011;57934;51.532;7.684;2022-10-26T11:10:53;7.28;;;2.10;;
70467;SDS011;57934;51.532;7.684;2022-10-26T11:13:30;6.13;;;1.70;;
70467;SDS011;57934;51.532;7.684;2022-10-26T11:16:03;5.80;;;1.65;;
70467;SDS011;57934;51.532;7.684;2022-10-26T11:18:39;4.88;;;1.60;;
70467;SDS011;57934;51.532;7.684;2022-10-26T11:21:21;3.38;;;1.60;;
70467;SDS011;57934;51.532;7.684;2022-10-26T11:24:00;6.45;;;1.50;;
70467;SDS011;57934;51.532;7.684;2022-10-26T11:31:52;6.63;;;1.80;;
70467;SDS011;57934;51.532;7.684;2022-10-26T11:37:11;6.22;;;2.08;;
70467;SDS011;57934;51.532;7.684;2022-10-26T11:39:45;5.43;;;1.48;;
70467;SDS011;57934;51.532;7.684;2022-10-26T11:42:34;6.85;;;2.13;;
70467;SDS011;57934;51.532;7.684;2022-10-26T11:45:22;7.30;;;2.20;;
70467;SDS011;57934;51.532;7.684;2022-10-26T11:47:54;5.70;;;2.03;;
70467;SDS011;57934;51.532;7.684;2022-10-26T11:50:33;5.18;;;2.20;;
70467;SDS011;57934;51.532;7.684;2022-10-26T11:55:37;3.35;;;1.48;;
70467;SDS011;57934;51.532;7.684;2022-10-26T11:58:05;6.57;;;1.70;;
70467;SDS011;57934;51.532;7.684;2022-10-26T12:00:33;7.20;;;2.00;;
70467;SDS011;57934;51.532;7.684;2022-10-26T12:03:14;8.50;;;2.10;;
70467;SDS011;57934;51.532;7.684;2022-10-26T12:05:49;7.68;;;2.13;;
70467;SDS011;57934;51.532;7.684;2022-10-26T12:08:23;7.10;;;2.20;;
70467;SDS011;57934;51.532;7.684;2022-10-26T12:14:36;10.88;;;2.30;;
70467;SDS011;57934;51.532;7.684;2022-10-26T12:17:19;4.75;;;2.05;;
70467;SDS011;57934;51.532;7.684;2022-10-26T12:22:44;9.23;;;2.28;;
70467;SDS011;57934;51.532;7.684;2022-10-26T12:48:43;5.25;;;1.38;;
70467;SDS011;57934;51.532;7.684;2022-10-26T12:56:31;4.30;;;1.40;;
70467;SDS011;57934;51.532;7.684;2022-10-26T13:04:38;8.25;;;1.55;;
70467;SDS011;57934;51.532;7.684;2022-10-26T13:07:12;3.80;;;1.60;;
70467;SDS011;57934;51.532;7.684;2022-10-26T13:12:11;6.15;;;1.40;;
70467;SDS011;57934;51.532;7.684;2022-10-26T13:14:38;4.85;;;1.17;;
70467;SDS011;57934;51.532;7.684;2022-10-26T13:17:22;3.10;;;1.50;;
70467;SDS011;57934;51.532;7.684;2022-10-26T13:19:54;7.05;;;1.38;;
70467;SDS011;57934;51.532;7.684;2022-10-26T13:22:22;5.68;;;1.50;;
70467;SDS011;57934;51.532;7.684;2022-10-26T13:24:50;5.30;;;1.77;;
70467;SDS011;57934;51.532;7.684;2022-10-26T13:34:58;4.03;;;1.60;;
70467;SDS011;57934;51.532;7.684;2022-10-26T13:37:26;3.88;;;1.13;;
70467;SDS011;57934;51.532;7.684;2022-10-26T13:39:56;4.70;;;1.65;;
70467;SDS011;57934;51.532;7.684;2022-10-26T13:42:30;4.75;;;1.20;;
70467;SDS011;57934;51.532;7.684;2022-10-26T13:45:06;6.35;;;1.35;;
70467;SDS011;57934;51.532;7.684;2022-10-26T13:48:21;5.10;;;1.60;;
70467;SDS011;57934;51.532;7.684;2022-10-26T13:50:38;6.78;;;1.45;;
70467;SDS011;57934;51.532;7.684;2022-10-26T13:53:14;4.05;;;1.65;;
70467;SDS011;57934;51.532;7.684;2022-10-26T13:55:50;5.13;;;1.48;;
70467;SDS011;57934;51.532;7.684;2022-10-26T14:01:00;3.30;;;1.67;;
70467;SDS011;57934;51.532;7.684;2022-10-26T14:03:26;5.22;;;1.50;;
70467;SDS011;57934;51.532;7.684;2022-10-26T14:05:52;5.55;;;1.45;;
70467;SDS011;57934;51.532;7.684;2022-10-26T14:08:20;8.25;;;1.70;;
70467;SDS011;57934;51.532;7.684;2022-10-26T14:10:50;5.70;;;1.85;;
70467;SDS011;57934;51.532;7.684;2022-10-26T14:13:20;3.88;;;1.83;;
70467;SDS011;57934;51.532;7.684;2022-10-26T14:15:51;3.40;;;1.40;;
70467;SDS011;57934;51.532;7.684;2022-10-26T14:18:21;5.03;;;1.50;;
70467;SDS011;57934;51.532;7.684;2022-10-26T14:20:54;7.28;;;1.60;;
70467;SDS011;57934;51.532;7.684;2022-10-26T14:26:02;3.45;;;1.27;;
70467;SDS011;57934;51.532;7.684;2022-10-26T14:28:30;3.50;;;2.00;;
70467;SDS011;57934;51.532;7.684;2022-10-26T14:33:57;2.30;;;1.20;;
70467;SDS011;57934;51.532;7.684;2022-10-26T14:36:26;4.15;;;1.35;;
70467;SDS011;57934;51.532;7.684;2022-10-26T14:41:54;6.53;;;1.10;;
70467;SDS011;57934;51.532;7.684;2022-10-26T14:44:22;2.47;;;1.20;;
70467;SDS011;57934;51.532;7.684;2022-10-26T14:46:49;4.32;;;1.17;;
70467;SDS011;57934;51.532;7.684;2022-10-26T14:51:45;3.63;;;1.15;;
70467;SDS011;57934;51.532;7.684;2022-10-26T14:54:19;5.97;;;1.20;;
70467;SDS011;57934;51.532;7.684;2022-10-26T14:56:47;5.05;;;1.30;;
70467;SDS011;57934;51.532;7.684;2022-10-26T14:59:29;2.60;;;1.35;;
70467;SDS011;57934;51.532;7.684;2022-10-26T15:05:00;3.95;;;1.40;;
70467;SDS011;57934;51.532;7.684;2022-10-26T15:07:36;3.72;;;1.20;;
70467;SDS011;57934;51.532;7.684;2022-10-26T15:10:04;4.28;;;1.13;;
70467;SDS011;57934;51.532;7.684;2022-10-26T15:12:31;5.03;;;1.25;;
70467;SDS011;57934;51.532;7.684;2022-10-26T15:17:55;2.80;;;1.00;;
70467;SDS011;57934;51.532;7.684;2022-10-26T15:20:22;3.10;;;1.40;;
70467;SDS011;57934;51.532;7.684;2022-10-26T15:25:24;4.18;;;1.13;;
70467;SDS011;57934;51.532;7.684;2022-10-26T15:27:52;8.65;;;1.30;;
70467;SDS011;57934;51.532;7.684;2022-10-26T15:32:52;3.70;;;1.20;;
70467;SDS011;57934;51.532;7.684;2022-10-26T15:35:21;2.80;;;1.15;;
70467;SDS011;57934;51.532;7.684;2022-10-26T15:37:53;5.38;;;1.48;;
70467;SDS011;57934;51.532;7.684;2022-10-26T15:40:20;5.65;;;1.50;;
70467;SDS011;57934;51.532;7.684;2022-10-26T15:42:57;6.07;;;1.10;;
70467;SDS011;57934;51.532;7.684;2022-10-26T15:45:25;5.13;;;1.20;;
70467;SDS011;57934;51.532;7.684;2022-10-26T15:47:54;5.53;;;1.48;;
70467;SDS011;57934;51.532;7.684;2022-10-26T15:50:23;2.40;;;1.35;;
70467;SDS011;57934;51.532;7.684;2022-10-26T15:52:55;2.63;;;1.27;;
70467;SDS011;57934;51.532;7.684;2022-10-26T15:55:25;6.47;;;1.60;;
70467;SDS011;57934;51.532;7.684;2022-10-26T15:57:51;3.88;;;1.73;;
70467;SDS011;57934;51.532;7.684;2022-10-26T16:00:17;3.75;;;1.50;;
70467;SDS011;57934;51.532;7.684;2022-10-26T16:02:44;5.35;;;1.73;;
70467;SDS011;57934;51.532;7.684;2022-10-26T16:05:11;9.32;;;2.78;;
70467;SDS011;57934;51.532;7.684;2022-10-26T16:07:38;6.50;;;2.95;;
70467;SDS011;57934;51.532;7.684;2022-10-26T16:10:15;7.82;;;2.97;;
70467;SDS011;57934;51.532;7.684;2022-10-26T16:12:45;7.70;;;2.88;;
70467;SDS011;57934;51.532;7.684;2022-10-26T16:15:29;5.97;;;2.25;;
70467;SDS011;57934;51.532;7.684;2022-10-26T16:17:55;9.27;;;2.17;;
70467;SDS011;57934;51.532;7.684;2022-10-26T16:20:22;6.72;;;2.08;;
70467;SDS011;57934;51.532;7.684;2022-10-26T16:22:49;5.07;;;1.90;;
70467;SDS011;57934;51.532;7.684;2022-10-26T16:25:17;5.93;;;1.70;;
70467;SDS011;57934;51.532;7.684;2022-10-26T16:27:48;6.50;;;2.47;;
70467;SDS011;57934;51.532;7.684;2022-10-26T16:30:15;3.45;;;1.60;;
70467;SDS011;57934;51.532;7.684;2022-10-26T16:32:42;6.22;;;1.80;;
70467;SDS011;57934;51.532;7.684;2022-10-26T16:35:08;3.53;;;1.77;;
70467;SDS011;57934;51.532;7.684;2022-10-26T16:37:35;7.57;;;1.80;;
70467;SDS011;57934;51.532;7.684;2022-10-26T16:40:01;6.88;;;1.73;;
70467;SDS011;57934;51.532;7.684;2022-10-26T16:42:29;4.57;;;1.70;;
70467;SDS011;57934;51.532;7.684;2022-10-26T16:44:55;8.05;;;2.22;;
70467;SDS011;57934;51.532;7.684;2022-10-26T16:47:21;5.88;;;1.98;;
70467;SDS011;57934;51.532;7.684;2022-10-26T16:49:47;3.63;;;1.58;;
70467;SDS011;57934;51.532;7.684;2022-10-26T16:52:13;5.40;;;1.70;;
70467;SDS011;57934;51.532;7.684;2022-10-26T16:54:39;4.18;;;1.60;;
70467;SDS011;57934;51.532;7.684;2022-10-26T16:57:05;5.43;;;2.05;;
70467;SDS011;57934;51.532;7.684;2022-10-26T16:59:31;5.38;;;1.95;;
70467;SDS011;57934;51.532;7.684;2022-10-26T17:01:57;6.07;;;1.85;;
70467;SDS011;57934;51.532;7.684;2022-10-26T17:04:23;4.95;;;1.95;;
70467;SDS011;57934;51.532;7.684;2022-10-26T17:06:49;5.50;;;1.90;;
70467;SDS011;57934;51.532;7.684;2022-10-26T17:09:15;8.10;;;1.85;;
70467;SDS011;57934;51.532;7.684;2022-10-26T17:11:41;7.57;;;1.95;;
70467;SDS011;57934;51.532;7.684;2022-10-26T17:14:07;2.65;;;1.67;;
70467;SDS011;57934;51.532;7.684;2022-10-26T17:16:33;5.93;;;1.63;;
70467;SDS011;57934;51.532;7.684;2022-10-26T17:19:02;5.80;;;1.80;;
70467;SDS011;57934;51.532;7.684;2022-10-26T17:21:29;4.60;;;1.60;;
70467;SDS011;57934;51.532;7.684;2022-10-26T17:23:57;6.53;;;1.70;;
70467;SDS011;57934;51.532;7.684;2022-10-26T17:26:23;7.85;;;1.77;;
70467;SDS011;57934;51.532;7.684;2022-10-26T17:28:49;3.65;;;1.85;;
70467;SDS011;57934;51.532;7.684;2022-10-26T17:31:16;6.57;;;1.90;;
70467;SDS011;57934;51.532;7.684;2022-10-26T17:33:43;7.28;;;1.90;;
70467;SDS011;57934;51.532;7.684;2022-10-26T17:36:11;7.25;;;2.45;;
70467;SDS011;57934;51.532;7.684;2022-10-26T17:38:39;6.28;;;2.22;;
70467;SDS011;57934;51.532;7.684;2022-10-26T17:41:07;11.48;;;3.00;;
70467;SDS011;57934;51.532;7.684;2022-10-26T17:43:35;4.28;;;3.22;;
70467;SDS011;57934;51.532;7.684;2022-10-26T17:46:04;10.75;;;2.60;;
70467;SDS011;57934;51.532;7.684;2022-10-26T17:48:32;4.68;;;2.70;;
70467;SDS011;57934;51.532;7.684;2022-10-26T17:51:01;8.63;;;2.67;;